sensor_id;sensor_type;location;lat;lon;timestamp;pressure;altitude;pressure_sealevel;temperature;humidity
14117;BME280;7137;51.436;6.544;2023-11-19T00:02:54;100549.53;;;12.15;100.00
14117;BME280;7137;51.436;6.544;2023-11-19T00:05:56;100546.97;;;12.13;100.00
14117;BME280;7137;51.436;6.544;2023-11-19T00:08:59;100537.28;;;12.15;100.00
14117;BME280;7137;51.436;6.544;2023-11-19T00:12:01;100535.25;;;12.22;100.00
14117;BME280;7137;51.436;6.544;2023-11-19T00:15:05;100530.75;;;12.26;100.00
14117;BME280;7137;51.436;6.544;2023-11-19T00:18:09;100526.38;;;12.26;100.00
14117;BME280;7137;51.436;6.544;2023-11-19T00:21:11;100531.56;;;12.28;100.00
14117;BME280;7137;51.436;6.544;2023-11-19T00:24:14;100531.47;;;12.29;100.00
14117;BME280;7137;51.436;6.544;2023-11-19T00:27:16;100530.28;;;12.36;100.00
14117;BME280;7137;51.436;6.544;2023-11-19T00:30:19;100520.72;;;12.35;100.00
14117;BME280;7137;51.436;6.544;2023-11-19T00:33:21;100513.63;;;12.39;100.00
14117;BME280;7137;51.436;6.544;2023-11-19T00:36:22;100511.00;;;12.39;100.00
14117;BME280;7137;51.436;6.544;2023-11-19T00:39:25;100510.88;;;12.42;100.00
14117;BME280;7137;51.436;6.544;2023-11-19T00:42:27;100507.41;;;12.41;100.00
14117;BME280;7137;51.436;6.544;2023-11-19T00:45:28;100499.53;;;12.41;100.00
14117;BME280;7137;51.436;6.544;2023-11-19T00:48:30;100502.03;;;12.44;100.00
14117;BME280;7137;51.436;6.544;2023-11-19T00:51:32;100488.06;;;12.44;100.00
14117;BME280;7137;51.436;6.544;2023-11-19T00:54:35;100482.06;;;12.42;100.00
14117;BME280;7137;51.436;6.544;2023-11-19T00:57:37;100480.84;;;12.49;100.00
14117;BME280;7137;51.436;6.544;2023-11-19T01:00:38;100483.53;;;12.47;100.00
14117;BME280;7137;51.436;6.544;2023-11-19T01:03:40;100481.00;;;12.46;100.00
14117;BME280;7137;51.436;6.544;2023-11-19T01:06:41;100473.13;;;12.46;100.00
14117;BME280;7137;51.436;6.544;2023-11-19T01:09:44;100478.16;;;12.51;100.00
14117;BME280;7137;51.436;6.544;2023-11-19T01:12:46;100478.91;;;12.54;100.00
14117;BME280;7137;51.436;6.544;2023-11-19T01:15:48;100488.47;;;12.55;100.00
14117;BME280;7137;51.436;6.544;2023-11-19T01:18:49;100474.38;;;12.58;100.00
14117;BME280;7137;51.436;6.544;2023-11-19T01:21:51;100480.59;;;12.55;100.00
14117;BME280;7137;51.436;6.544;2023-11-19T01:24:54;100487.69;;;12.53;100.00
14117;BME280;7137;51.436;6.544;2023-11-19T01:27:55;100490.25;;;12.55;100.00
14117;BME280;7137;51.436;6.544;2023-11-19T01:30:58;100498.75;;;12.60;100.00
14117;BME280;7137;51.436;6.544;2023-11-19T01:34:00;100503.28;;;12.56;100.00
14117;BME280;7137;51.436;6.544;2023-11-19T01:37:01;100496.41;;;12.54;100.00
14117;BME280;7137;51.436;6.544;2023-11-19T01:40:05;100491.03;;;12.57;100.00
14117;BME280;7137;51.436;6.544;2023-11-19T01:43:11;100486.50;;;12.60;100.00
14117;BME280;7137;51.436;6.544;2023-11-19T01:46:14;100486.50;;;12.60;100.00
14117;BME280;7137;51.436;6.544;2023-11-19T01:49:15;100492.50;;;12.62;100.00
14117;BME280;7137;51.436;6.544;2023-11-19T01:52:19;100492.13;;;12.71;100.00
14117;BME280;7137;51.436;6.544;2023-11-19T01:55:24;100491.59;;;12.63;100.00
14117;BME280;7137;51.436;6.544;2023-11-19T01:58:25;100472.94;;;12.71;100.00
14117;BME280;7137;51.436;6.544;2023-11-19T02:01:30;100458.50;;;12.61;100.00
14117;BME280;7137;51.436;6.544;2023-11-19T02:04:32;100460.91;;;12.65;100.00
14117;BME280;7137;51.436;6.544;2023-11-19T02:07:35;100447.78;;;12.67;100.00
14117;BME280;7137;51.436;6.544;2023-11-19T02:10:38;100451.56;;;12.60;100.00
14117;BME280;7137;51.436;6.544;2023-11-19T02:13:39;100439.97;;;12.65;100.00
14117;BME280;7137;51.436;6.544;2023-11-19T02:16:41;100442.66;;;12.64;100.00
14117;BME280;7137;51.436;6.544;2023-11-19T02:19:43;100443.56;;;12.63;100.00
14117;BME280;7137;51.436;6.544;2023-11-19T02:22:46;100458.31;;;12.65;100.00
14117;BME280;7137;51.436;6.544;2023-11-19T02:26:00;100442.41;;;12.70;100.00
14117;BME280;7137;51.436;6.544;2023-11-19T02:29:04;100431.00;;;12.71;100.00
14117;BME280;7137;51.436;6.544;2023-11-19T02:32:07;100436.16;;;12.72;100.00
14117;BME280;7137;51.436;6.544;2023-11-19T02:35:09;100443.16;;;12.72;100.00
14117;BME280;7137;51.436;6.544;2023-11-19T02:38:11;100436.78;;;12.77;100.00
14117;BME280;7137;51.436;6.544;2023-11-19T02:41:14;100425.38;;;12.78;100.00
14117;BME280;7137;51.436;6.544;2023-11-19T02:44:17;100426.16;;;12.81;100.00
14117;BME280;7137;51.436;6.544;2023-11-19T02:47:19;100420.88;;;12.82;100.00
14117;BME280;7137;51.436;6.544;2023-11-19T02:50:21;100417.44;;;12.80;100.00
14117;BME280;7137;51.436;6.544;2023-11-19T02:53:26;100414.81;;;12.80;100.00
14117;BME280;7137;51.436;6.544;2023-11-19T02:56:29;100416.59;;;12.79;100.00
14117;BME280;7137;51.436;6.544;2023-11-19T02:59:39;100413.00;;;12.82;100.00
14117;BME280;7137;51.436;6.544;2023-11-19T03:02:44;100415.91;;;12.76;100.00
14117;BME280;7137;51.436;6.544;2023-11-19T03:05:46;100429.66;;;12.81;100.00
14117;BME280;7137;51.436;6.544;2023-11-19T03:08:48;100410.94;;;12.70;100.00
14117;BME280;7137;51.436;6.544;2023-11-19T03:11:50;100404.84;;;12.69;100.00
14117;BME280;7137;51.436;6.544;2023-11-19T03:14:54;100411.41;;;12.59;100.00
14117;BME280;7137;51.436;6.544;2023-11-19T03:17:56;100421.31;;;12.53;100.00
14117;BME280;7137;51.436;6.544;2023-11-19T03:20:58;100419.09;;;12.43;100.00
14117;BME280;7137;51.436;6.544;2023-11-19T03:24:00;100422.66;;;12.42;100.00
14117;BME280;7137;51.436;6.544;2023-11-19T03:27:01;100413.19;;;12.38;100.00
14117;BME280;7137;51.436;6.544;2023-11-19T03:30:07;100420.28;;;12.36;100.00
14117;BME280;7137;51.436;6.544;2023-11-19T03:33:10;100417.59;;;12.38;100.00
14117;BME280;7137;51.436;6.544;2023-11-19T03:36:12;100429.47;;;12.26;100.00
14117;BME280;7137;51.436;6.544;2023-11-19T03:39:14;100419.06;;;12.25;100.00
14117;BME280;7137;51.436;6.544;2023-11-19T03:42:15;100419.53;;;12.14;100.00
14117;BME280;7137;51.436;6.544;2023-11-19T03:45:18;100424.81;;;12.12;100.00
14117;BME280;7137;51.436;6.544;2023-11-19T03:48:20;100419.59;;;12.12;100.00
14117;BME280;7137;51.436;6.544;2023-11-19T03:51:22;100422.28;;;12.11;100.00
14117;BME280;7137;51.436;6.544;2023-11-19T03:54:24;100428.53;;;12.07;100.00
14117;BME280;7137;51.436;6.544;2023-11-19T03:57:28;100433.00;;;12.05;100.00
14117;BME280;7137;51.436;6.544;2023-11-19T04:00:30;100418.19;;;12.04;100.00
14117;BME280;7137;51.436;6.544;2023-11-19T04:03:32;100420.03;;;12.02;100.00
14117;BME280;7137;51.436;6.544;2023-11-19T04:06:33;100430.38;;;12.05;100.00
14117;BME280;7137;51.436;6.544;2023-11-19T04:09:35;100427.09;;;12.00;100.00
14117;BME280;7137;51.436;6.544;2023-11-19T04:12:37;100424.56;;;11.98;100.00
14117;BME280;7137;51.436;6.544;2023-11-19T04:15:40;100421.09;;;11.98;100.00
14117;BME280;7137;51.436;6.544;2023-11-19T04:18:43;100417.56;;;11.99;100.00
14117;BME280;7137;51.436;6.544;2023-11-19T04:21:45;100425.06;;;12.06;100.00
14117;BME280;7137;51.436;6.544;2023-11-19T04:24:47;100421.81;;;12.01;100.00
14117;BME280;7137;51.436;6.544;2023-11-19T04:27:49;100431.09;;;12.08;100.00
14117;BME280;7137;51.436;6.544;2023-11-19T04:30:52;100430.91;;;12.13;100.00
14117;BME280;7137;51.436;6.544;2023-11-19T04:33:53;100429.94;;;12.15;100.00
14117;BME280;7137;51.436;6.544;2023-11-19T04:36:55;100427.44;;;12.12;100.00
14117;BME280;7137;51.436;6.544;2023-11-19T04:39:57;100427.75;;;12.05;100.00
14117;BME280;7137;51.436;6.544;2023-11-19T04:43:00;100420.63;;;12.08;100.00
14117;BME280;7137;51.436;6.544;2023-11-19T04:46:05;100439.22;;;12.23;100.00
14117;BME280;7137;51.436;6.544;2023-11-19T04:49:06;100430.56;;;12.21;100.00
14117;BME280;7137;51.436;6.544;2023-11-19T04:52:08;100448.53;;;12.30;100.00
14117;BME280;7137;51.436;6.544;2023-11-19T04:55:10;100455.47;;;12.31;100.00
14117;BME280;7137;51.436;6.544;2023-11-19T04:58:12;100442.16;;;12.35;100.00
14117;BME280;7137;51.436;6.544;2023-11-19T05:01:15;100442.94;;;12.17;100.00
14117;BME280;7137;51.436;6.544;2023-11-19T05:04:18;100444.72;;;12.16;100.00
14117;BME280;7137;51.436;6.544;2023-11-19T05:07:20;100442.69;;;12.23;100.00
14117;BME280;7137;51.436;6.544;2023-11-19T05:10:21;100444.50;;;12.21;100.00
14117;BME280;7137;51.436;6.544;2023-11-19T05:13:23;100437.97;;;12.31;100.00
14117;BME280;7137;51.436;6.544;2023-11-19T05:16:26;100437.91;;;12.33;100.00
14117;BME280;7137;51.436;6.544;2023-11-19T05:19:27;100442.28;;;12.32;100.00
14117;BME280;7137;51.436;6.544;2023-11-19T05:22:29;100441.38;;;12.33;100.00
14117;BME280;7137;51.436;6.544;2023-11-19T05:25:30;100451.00;;;12.33;100.00
14117;BME280;7137;51.436;6.544;2023-11-19T05:28:32;100456.16;;;12.34;100.00
14117;BME280;7137;51.436;6.544;2023-11-19T05:31:35;100449.50;;;12.27;100.00
14117;BME280;7137;51.436;6.544;2023-11-19T05:34:36;100447.00;;;12.24;100.00
14117;BME280;7137;51.436;6.544;2023-11-19T05:37:38;100450.81;;;12.17;100.00
14117;BME280;7137;51.436;6.544;2023-11-19T05:40:40;100453.69;;;12.11;100.00
14117;BME280;7137;51.436;6.544;2023-11-19T05:43:42;100459.81;;;12.10;100.00
14117;BME280;7137;51.436;6.544;2023-11-19T05:46:45;100452.88;;;12.09;100.00
14117;BME280;7137;51.436;6.544;2023-11-19T05:49:46;100461.78;;;12.05;100.00
14117;BME280;7137;51.436;6.544;2023-11-19T05:52:49;100455.06;;;11.99;100.00
14117;BME280;7137;51.436;6.544;2023-11-19T05:55:51;100461.06;;;12.01;100.00
14117;BME280;7137;51.436;6.544;2023-11-19T05:58:56;100462.06;;;11.99;100.00
14117;BME280;7137;51.436;6.544;2023-11-19T06:01:58;100463.16;;;11.93;100.00
14117;BME280;7137;51.436;6.544;2023-11-19T06:05:00;100458.97;;;11.89;100.00
14117;BME280;7137;51.436;6.544;2023-11-19T06:08:02;100460.06;;;11.83;100.00
14117;BME280;7137;51.436;6.544;2023-11-19T06:11:04;100460.25;;;11.79;100.00
14117;BME280;7137;51.436;6.544;2023-11-19T06:14:06;100464.84;;;11.72;100.00
14117;BME280;7137;51.436;6.544;2023-11-19T06:17:09;100462.09;;;11.75;100.00
14117;BME280;7137;51.436;6.544;2023-11-19T06:20:11;100468.03;;;11.80;100.00
14117;BME280;7137;51.436;6.544;2023-11-19T06:23:14;100474.16;;;11.79;100.00
14117;BME280;7137;51.436;6.544;2023-11-19T06:26:16;100463.81;;;11.76;100.00
14117;BME280;7137;51.436;6.544;2023-11-19T06:29:17;100464.66;;;11.77;100.00
14117;BME280;7137;51.436;6.544;2023-11-19T06:32:21;100458.69;;;11.73;100.00
14117;BME280;7137;51.436;6.544;2023-11-19T06:35:23;100470.25;;;11.68;100.00
14117;BME280;7137;51.436;6.544;2023-11-19T06:38:24;100466.06;;;11.64;100.00
14117;BME280;7137;51.436;6.544;2023-11-19T06:41:27;100465.94;;;11.67;100.00
14117;BME280;7137;51.436;6.544;2023-11-19T06:44:29;100468.53;;;11.67;100.00
14117;BME280;7137;51.436;6.544;2023-11-19T06:47:32;100469.59;;;11.63;100.00
14117;BME280;7137;51.436;6.544;2023-11-19T06:50:33;100473.25;;;11.58;100.00
14117;BME280;7137;51.436;6.544;2023-11-19T06:53:35;100491.72;;;11.54;100.00
14117;BME280;7137;51.436;6.544;2023-11-19T06:56:36;100478.47;;;11.58;100.00
14117;BME280;7137;51.436;6.544;2023-11-19T06:59:38;100481.31;;;11.52;100.00
14117;BME280;7137;51.436;6.544;2023-11-19T07:02:41;100472.75;;;11.49;100.00
14117;BME280;7137;51.436;6.544;2023-11-19T07:05:44;100467.72;;;11.44;100.00
14117;BME280;7137;51.436;6.544;2023-11-19T07:08:46;100477.31;;;11.44;100.00
14117;BME280;7137;51.436;6.544;2023-11-19T07:11:47;100475.50;;;11.46;100.00
14117;BME280;7137;51.436;6.544;2023-11-19T07:14:52;100476.53;;;11.42;100.00
14117;BME280;7137;51.436;6.544;2023-11-19T07:17:55;100468.50;;;11.46;100.00
14117;BME280;7137;51.436;6.544;2023-11-19T07:20:58;100476.53;;;11.42;100.00
14117;BME280;7137;51.436;6.544;2023-11-19T07:24:00;100488.00;;;11.38;100.00
14117;BME280;7137;51.436;6.544;2023-11-19T07:27:01;100498.41;;;11.39;100.00
14117;BME280;7137;51.436;6.544;2023-11-19T07:30:05;100506.81;;;11.47;100.00
14117;BME280;7137;51.436;6.544;2023-11-19T07:33:09;100510.28;;;11.48;100.00
14117;BME280;7137;51.436;6.544;2023-11-19T07:36:11;100510.22;;;11.49;100.00
14117;BME280;7137;51.436;6.544;2023-11-19T07:39:13;100507.66;;;11.48;100.00
14117;BME280;7137;51.436;6.544;2023-11-19T07:42:14;100517.22;;;11.49;100.00
14117;BME280;7137;51.436;6.544;2023-11-19T07:45:16;100525.13;;;11.47;100.00
14117;BME280;7137;51.436;6.544;2023-11-19T07:48:19;100524.03;;;11.53;100.00
14117;BME280;7137;51.436;6.544;2023-11-19T07:51:23;100531.03;;;11.52;100.00
14117;BME280;7137;51.436;6.544;2023-11-19T07:54:25;100545.66;;;11.58;100.00
14117;BME280;7137;51.436;6.544;2023-11-19T07:57:26;100543.56;;;11.66;100.00
14117;BME280;7137;51.436;6.544;2023-11-19T08:00:31;100560.44;;;11.59;100.00
14117;BME280;7137;51.436;6.544;2023-11-19T08:03:34;100568.53;;;11.75;100.00
14117;BME280;7137;51.436;6.544;2023-11-19T08:06:35;100555.59;;;11.72;100.00
14117;BME280;7137;51.436;6.544;2023-11-19T08:09:37;100570.16;;;11.79;100.00
14117;BME280;7137;51.436;6.544;2023-11-19T08:12:38;100563.00;;;11.84;100.00
14117;BME280;7137;51.436;6.544;2023-11-19T08:15:40;100569.94;;;11.85;100.00
14117;BME280;7137;51.436;6.544;2023-11-19T08:18:43;100568.38;;;11.79;100.00
14117;BME280;7137;51.436;6.544;2023-11-19T08:21:45;100568.38;;;11.79;100.00
14117;BME280;7137;51.436;6.544;2023-11-19T08:24:46;100575.53;;;11.98;100.00
14117;BME280;7137;51.436;6.544;2023-11-19T08:27:48;100570.63;;;12.10;100.00
14117;BME280;7137;51.436;6.544;2023-11-19T08:30:50;100569.00;;;12.08;100.00
14117;BME280;7137;51.436;6.544;2023-11-19T08:33:52;100561.84;;;12.33;100.00
14117;BME280;7137;51.436;6.544;2023-11-19T08:36:55;100581.53;;;12.64;97.81
14117;BME280;7137;51.436;6.544;2023-11-19T08:39:57;100568.38;;;12.65;97.67
14117;BME280;7137;51.436;6.544;2023-11-19T08:42:59;100570.91;;;13.07;97.48
14117;BME280;7137;51.436;6.544;2023-11-19T08:46:01;100571.34;;;13.17;94.72
14117;BME280;7137;51.436;6.544;2023-11-19T08:49:04;100571.91;;;13.25;94.65
14117;BME280;7137;51.436;6.544;2023-11-19T08:52:05;100594.63;;;13.45;94.71
14117;BME280;7137;51.436;6.544;2023-11-19T08:55:08;100590.72;;;13.15;94.47
14117;BME280;7137;51.436;6.544;2023-11-19T08:58:10;100594.06;;;13.18;95.73
14117;BME280;7137;51.436;6.544;2023-11-19T09:01:11;100589.09;;;13.12;95.76
14117;BME280;7137;51.436;6.544;2023-11-19T09:04:15;100600.09;;;13.20;95.30
14117;BME280;7137;51.436;6.544;2023-11-19T09:07:16;100598.16;;;13.44;93.52
14117;BME280;7137;51.436;6.544;2023-11-19T09:10:18;100604.25;;;13.63;92.70
14117;BME280;7137;51.436;6.544;2023-11-19T09:13:19;100592.16;;;13.22;94.77
14117;BME280;7137;51.436;6.544;2023-11-19T09:16:21;100583.50;;;13.20;94.48
14117;BME280;7137;51.436;6.544;2023-11-19T09:19:24;100583.84;;;13.12;95.84
14117;BME280;7137;51.436;6.544;2023-11-19T09:22:26;100577.56;;;12.96;96.26
14117;BME280;7137;51.436;6.544;2023-11-19T09:25:28;100580.38;;;12.91;95.47
14117;BME280;7137;51.436;6.544;2023-11-19T09:28:29;100585.84;;;13.05;95.84
14117;BME280;7137;51.436;6.544;2023-11-19T09:31:31;100587.16;;;13.36;94.47
14117;BME280;7137;51.436;6.544;2023-11-19T09:34:34;100586.19;;;13.39;94.65
14117;BME280;7137;51.436;6.544;2023-11-19T09:37:36;100596.31;;;13.27;93.37
14117;BME280;7137;51.436;6.544;2023-11-19T09:40:37;100586.13;;;13.40;93.49
14117;BME280;7137;51.436;6.544;2023-11-19T09:43:39;100590.66;;;13.55;92.25
14117;BME280;7137;51.436;6.544;2023-11-19T09:46:41;100591.13;;;13.45;93.76
14117;BME280;7137;51.436;6.544;2023-11-19T09:49:44;100594.91;;;13.39;93.83
14117;BME280;7137;51.436;6.544;2023-11-19T09:52:46;100592.22;;;13.97;91.49
14117;BME280;7137;51.436;6.544;2023-11-19T09:55:48;100595.53;;;14.01;90.52
14117;BME280;7137;51.436;6.544;2023-11-19T09:58:50;100586.50;;;14.06;90.95
14117;BME280;7137;51.436;6.544;2023-11-19T10:01:52;100578.59;;;13.70;91.32
14117;BME280;7137;51.436;6.544;2023-11-19T10:04:55;100580.50;;;13.85;91.31
14117;BME280;7137;51.436;6.544;2023-11-19T10:07:57;100585.19;;;13.98;91.35
14117;BME280;7137;51.436;6.544;2023-11-19T10:10:58;100579.50;;;13.50;92.36
14117;BME280;7137;51.436;6.544;2023-11-19T10:14:00;100582.78;;;13.55;92.29
14117;BME280;7137;51.436;6.544;2023-11-19T10:17:02;100584.69;;;13.71;92.80
14117;BME280;7137;51.436;6.544;2023-11-19T10:20:08;100582.91;;;14.09;91.08
14117;BME280;7137;51.436;6.544;2023-11-19T10:23:10;100578.78;;;14.39;88.93
14117;BME280;7137;51.436;6.544;2023-11-19T10:26:12;100570.72;;;14.25;87.92
14117;BME280;7137;51.436;6.544;2023-11-19T10:29:13;100562.50;;;14.67;86.59
14117;BME280;7137;51.436;6.544;2023-11-19T10:32:15;100565.28;;;14.81;85.24
14117;BME280;7137;51.436;6.544;2023-11-19T10:35:18;100567.00;;;15.15;85.86
14117;BME280;7137;51.436;6.544;2023-11-19T10:38:20;100568.91;;;14.96;85.13
14117;BME280;7137;51.436;6.544;2023-11-19T10:41:28;100577.09;;;14.90;83.93
14117;BME280;7137;51.436;6.544;2023-11-19T10:44:34;100571.88;;;15.23;83.35
14117;BME280;7137;51.436;6.544;2023-11-19T10:47:36;100567.97;;;14.97;82.60
14117;BME280;7137;51.436;6.544;2023-11-19T10:50:41;100563.84;;;15.09;84.34
14117;BME280;7137;51.436;6.544;2023-11-19T10:53:44;100558.75;;;15.55;81.67
14117;BME280;7137;51.436;6.544;2023-11-19T10:56:49;100559.97;;;15.65;81.08
14117;BME280;7137;51.436;6.544;2023-11-19T10:59:57;100560.69;;;15.35;80.75
14117;BME280;7137;51.436;6.544;2023-11-19T11:03:02;100562.53;;;15.33;79.86
14117;BME280;7137;51.436;6.544;2023-11-19T11:06:09;100561.34;;;15.23;78.48
14117;BME280;7137;51.436;6.544;2023-11-19T11:09:12;100559.41;;;15.58;79.51
14117;BME280;7137;51.436;6.544;2023-11-19T11:12:17;100548.56;;;15.96;78.04
14117;BME280;7137;51.436;6.544;2023-11-19T11:15:19;100558.09;;;15.34;78.74
14117;BME280;7137;51.436;6.544;2023-11-19T11:18:21;100559.41;;;15.42;79.28
14117;BME280;7137;51.436;6.544;2023-11-19T11:21:25;100546.38;;;14.91;79.94
14117;BME280;7137;51.436;6.544;2023-11-19T11:24:43;100553.09;;;14.96;79.31
14117;BME280;7137;51.436;6.544;2023-11-19T11:27:56;100543.84;;;15.22;80.09
14117;BME280;7137;51.436;6.544;2023-11-19T11:31:10;100537.31;;;14.96;80.81
14117;BME280;7137;51.436;6.544;2023-11-19T11:34:58;100534.56;;;14.82;83.09
14117;BME280;7137;51.436;6.544;2023-11-19T11:38:07;100521.28;;;14.68;80.51
14117;BME280;7137;51.436;6.544;2023-11-19T11:41:15;100524.25;;;14.95;81.46
14117;BME280;7137;51.436;6.544;2023-11-19T11:44:57;100523.78;;;14.87;80.08
14117;BME280;7137;51.436;6.544;2023-11-19T11:48:17;100520.88;;;14.93;80.08
14117;BME280;7137;51.436;6.544;2023-11-19T11:55:17;100521.66;;;14.43;81.83
14117;BME280;7137;51.436;6.544;2023-11-19T11:58:19;100523.13;;;14.48;82.27
14117;BME280;7137;51.436;6.544;2023-11-19T12:01:25;100515.97;;;14.52;81.63
14117;BME280;7137;51.436;6.544;2023-11-19T12:04:28;100527.47;;;14.49;81.82
14117;BME280;7137;51.436;6.544;2023-11-19T12:07:30;100507.44;;;14.47;82.46
14117;BME280;7137;51.436;6.544;2023-11-19T12:10:47;100500.56;;;14.44;82.09
14117;BME280;7137;51.436;6.544;2023-11-19T12:13:56;100499.56;;;14.64;82.39
14117;BME280;7137;51.436;6.544;2023-11-19T12:17:03;100496.06;;;14.64;83.10
14117;BME280;7137;51.436;6.544;2023-11-19T12:20:06;100493.81;;;14.21;83.30
14117;BME280;7137;51.436;6.544;2023-11-19T12:23:09;100502.41;;;14.08;87.04
14117;BME280;7137;51.436;6.544;2023-11-19T12:26:31;100488.69;;;13.84;89.52
14117;BME280;7137;51.436;6.544;2023-11-19T12:29:41;100506.88;;;13.70;89.23
14117;BME280;7137;51.436;6.544;2023-11-19T12:32:46;100503.91;;;13.58;90.78
14117;BME280;7137;51.436;6.544;2023-11-19T12:35:48;100501.69;;;13.68;91.84
14117;BME280;7137;51.436;6.544;2023-11-19T12:38:50;100497.03;;;13.56;91.07
14117;BME280;7137;51.436;6.544;2023-11-19T12:41:53;100505.06;;;13.53;90.91
14117;BME280;7137;51.436;6.544;2023-11-19T12:44:55;100503.81;;;13.60;90.15
14117;BME280;7137;51.436;6.544;2023-11-19T12:48:04;100517.66;;;13.63;91.24
14117;BME280;7137;51.436;6.544;2023-11-19T12:51:06;100514.63;;;13.54;90.86
14117;BME280;7137;51.436;6.544;2023-11-19T12:54:08;100505.06;;;13.53;93.64
14117;BME280;7137;51.436;6.544;2023-11-19T12:57:11;100513.13;;;13.48;93.45
14117;BME280;7137;51.436;6.544;2023-11-19T13:00:18;100506.03;;;13.31;94.82
14117;BME280;7137;51.436;6.544;2023-11-19T13:03:29;100502.16;;;13.40;95.35
14117;BME280;7137;51.436;6.544;2023-11-19T13:06:31;100504.94;;;13.17;97.16
14117;BME280;7137;51.436;6.544;2023-11-19T13:09:33;100502.53;;;13.12;97.60
14117;BME280;7137;51.436;6.544;2023-11-19T13:12:36;100501.16;;;13.03;97.61
14117;BME280;7137;51.436;6.544;2023-11-19T13:15:38;100510.78;;;12.84;98.57
14117;BME280;7137;51.436;6.544;2023-11-19T13:18:40;100504.69;;;12.84;98.35
14117;BME280;7137;51.436;6.544;2023-11-19T13:21:42;100500.31;;;13.03;97.91
14117;BME280;7137;51.436;6.544;2023-11-19T13:24:46;100501.63;;;13.13;96.83
14117;BME280;7137;51.436;6.544;2023-11-19T13:27:49;100504.84;;;12.99;95.86
14117;BME280;7137;51.436;6.544;2023-11-19T13:30:50;100503.56;;;13.08;95.99
14117;BME280;7137;51.436;6.544;2023-11-19T13:33:53;100502.53;;;13.12;95.24
14117;BME280;7137;51.436;6.544;2023-11-19T13:36:55;100500.75;;;13.13;95.09
14117;BME280;7137;51.436;6.544;2023-11-19T13:39:57;100489.50;;;13.11;94.20
14117;BME280;7137;51.436;6.544;2023-11-19T13:42:59;100485.94;;;13.12;95.04
14117;BME280;7137;51.436;6.544;2023-11-19T13:46:01;100485.88;;;13.13;93.36
14117;BME280;7137;51.436;6.544;2023-11-19T13:49:03;100480.25;;;13.02;92.03
14117;BME280;7137;51.436;6.544;2023-11-19T13:52:05;100483.31;;;13.12;93.18
14117;BME280;7137;51.436;6.544;2023-11-19T13:55:08;100486.94;;;13.09;94.95
14117;BME280;7137;51.436;6.544;2023-11-19T13:58:12;100494.28;;;13.01;98.69
14117;BME280;7137;51.436;6.544;2023-11-19T14:01:14;100498.78;;;12.78;100.00
14117;BME280;7137;51.436;6.544;2023-11-19T14:04:15;100479.53;;;12.59;100.00
14117;BME280;7137;51.436;6.544;2023-11-19T14:07:17;100485.06;;;12.53;100.00
14117;BME280;7137;51.436;6.544;2023-11-19T14:10:18;100477.84;;;12.38;100.00
14117;BME280;7137;51.436;6.544;2023-11-19T14:13:21;100469.88;;;12.41;100.00
14117;BME280;7137;51.436;6.544;2023-11-19T14:16:26;100466.13;;;12.46;100.00
14117;BME280;7137;51.436;6.544;2023-11-19T14:19:27;100479.63;;;12.58;100.00
14117;BME280;7137;51.436;6.544;2023-11-19T14:22:29;100482.75;;;12.45;100.00
14117;BME280;7137;51.436;6.544;2023-11-19T14:25:31;100490.16;;;12.36;100.00
14117;BME280;7137;51.436;6.544;2023-11-19T14:28:34;100481.59;;;12.32;100.00
14117;BME280;7137;51.436;6.544;2023-11-19T14:31:35;100476.63;;;12.26;100.00
14117;BME280;7137;51.436;6.544;2023-11-19T14:34:37;100484.91;;;12.36;100.00
14117;BME280;7137;51.436;6.544;2023-11-19T14:37:39;100481.84;;;12.26;100.00
14117;BME280;7137;51.436;6.544;2023-11-19T14:40:40;100477.84;;;12.17;100.00
14117;BME280;7137;51.436;6.544;2023-11-19T14:43:44;100475.44;;;12.13;100.00
14117;BME280;7137;51.436;6.544;2023-11-19T14:46:45;100470.84;;;12.18;100.00
14117;BME280;7137;51.436;6.544;2023-11-19T14:49:47;100460.44;;;12.16;100.00
14117;BME280;7137;51.436;6.544;2023-11-19T14:52:49;100468.22;;;11.98;100.00
14117;BME280;7137;51.436;6.544;2023-11-19T14:55:50;100462.44;;;11.89;100.00
14117;BME280;7137;51.436;6.544;2023-11-19T14:58:53;100476.22;;;11.93;100.00
14117;BME280;7137;51.436;6.544;2023-11-19T15:01:55;100479.59;;;11.97;100.00
14117;BME280;7137;51.436;6.544;2023-11-19T15:04:56;100479.91;;;12.09;100.00
14117;BME280;7137;51.436;6.544;2023-11-19T15:07:58;100475.56;;;11.88;100.00
14117;BME280;7137;51.436;6.544;2023-11-19T15:10:59;100483.38;;;11.66;100.00
14117;BME280;7137;51.436;6.544;2023-11-19T15:14:03;100473.47;;;11.74;100.00
14117;BME280;7137;51.436;6.544;2023-11-19T15:17:06;100473.09;;;11.85;100.00
14117;BME280;7137;51.436;6.544;2023-11-19T15:20:09;100446.69;;;11.68;100.00
14117;BME280;7137;51.436;6.544;2023-11-19T15:23:11;100449.84;;;11.55;100.00
14117;BME280;7137;51.436;6.544;2023-11-19T15:26:12;100445.53;;;11.53;100.00
14117;BME280;7137;51.436;6.544;2023-11-19T15:29:15;100450.97;;;11.48;100.00
14117;BME280;7137;51.436;6.544;2023-11-19T15:32:17;100444.03;;;11.47;100.00
14117;BME280;7137;51.436;6.544;2023-11-19T15:35:18;100450.13;;;11.48;100.00
14117;BME280;7137;51.436;6.544;2023-11-19T15:38:20;100452.53;;;11.52;100.00
14117;BME280;7137;51.436;6.544;2023-11-19T15:41:21;100455.78;;;11.59;100.00
14117;BME280;7137;51.436;6.544;2023-11-19T15:44:24;100457.06;;;11.49;100.00
14117;BME280;7137;51.436;6.544;2023-11-19T15:47:26;100451.63;;;11.53;100.00
14117;BME280;7137;51.436;6.544;2023-11-19T15:50:27;100444.75;;;11.51;100.00
14117;BME280;7137;51.436;6.544;2023-11-19T15:53:29;100451.34;;;11.61;100.00
14117;BME280;7137;51.436;6.544;2023-11-19T15:56:32;100448.13;;;11.54;100.00
14117;BME280;7137;51.436;6.544;2023-11-19T15:59:34;100449.56;;;11.62;100.00
14117;BME280;7137;51.436;6.544;2023-11-19T16:02:36;100447.50;;;11.48;100.00
14117;BME280;7137;51.436;6.544;2023-11-19T16:05:38;100447.81;;;11.40;100.00